createdAt,value
2018-12-04T00:00:26.245Z,9.26
2018-12-04T00:02:56.505Z,9.19
2018-12-04T00:05:26.674Z,8.70
2018-12-04T00:07:56.902Z,8.66
2018-12-04T00:10:27.099Z,8.60
2018-12-04T00:12:57.223Z,8.66
2018-12-04T00:15:27.385Z,9.08
2018-12-04T00:17:58.103Z,9.24
2018-12-04T00:20:28.620Z,9.19
2018-12-04T00:22:58.775Z,9.25
2018-12-04T00:25:28.878Z,9.23
2018-12-04T00:27:59.139Z,8.88
2018-12-04T00:30:29.620Z,9.15
2018-12-04T00:32:59.763Z,9.21
2018-12-04T00:35:29.838Z,8.93
2018-12-04T00:38:33.502Z,8.87
2018-12-04T00:41:02.957Z,8.59
2018-12-04T00:43:31.896Z,9.08
2018-12-04T00:46:00.789Z,9.03
2018-12-04T00:48:29.668Z,8.92
2018-12-04T00:50:58.572Z,8.61
2018-12-04T00:53:27.423Z,8.52
2018-12-04T00:55:56.352Z,8.69
2018-12-04T00:58:25.255Z,8.48
2018-12-04T01:00:54.108Z,8.88
2018-12-04T01:03:22.984Z,8.93
2018-12-04T01:05:51.841Z,8.89
2018-12-04T01:08:20.691Z,8.84
2018-12-04T01:10:49.577Z,8.82
2018-12-04T01:13:18.423Z,8.31
2018-12-04T01:15:47.457Z,8.56
2018-12-04T01:18:16.323Z,8.23
2018-12-04T01:20:45.168Z,8.08
2018-12-04T01:23:14.147Z,8.36
2018-12-04T01:25:43.019Z,8.22
2018-12-04T01:28:11.858Z,8.06
2018-12-04T01:30:40.841Z,8.15
2018-12-04T01:33:09.708Z,8.27
2018-12-04T01:35:38.614Z,8.20
2018-12-04T01:38:07.488Z,8.36
2018-12-04T01:40:36.346Z,8.42
2018-12-04T01:43:05.166Z,8.38
2018-12-04T01:45:34.030Z,8.41
2018-12-04T01:48:03.042Z,8.49
2018-12-04T01:50:31.903Z,8.47
2018-12-04T01:53:00.790Z,8.55
2018-12-04T01:55:29.634Z,8.62
2018-12-04T01:57:58.473Z,8.51
2018-12-04T02:00:27.315Z,8.46
2018-12-04T02:02:56.163Z,8.45
2018-12-04T02:05:24.999Z,8.39
2018-12-04T02:07:53.972Z,8.37
2018-12-04T02:10:22.836Z,8.41
2018-12-04T02:12:51.728Z,8.38
2018-12-04T02:15:20.623Z,8.43
2018-12-04T02:17:49.527Z,8.48
2018-12-04T02:20:18.395Z,8.46
2018-12-04T02:22:47.292Z,8.45
2018-12-04T02:25:16.148Z,8.38
2018-12-04T02:27:45.073Z,8.27
2018-12-04T02:30:14.871Z,8.20
2018-12-04T02:32:44.036Z,8.30
2018-12-04T02:35:13.496Z,8.15
2018-12-04T02:37:42.382Z,8.10
2018-12-04T02:40:11.241Z,8.12
2018-12-04T02:42:40.141Z,8.24
2018-12-04T02:45:09.132Z,8.20
2018-12-04T02:47:37.975Z,8.25
2018-12-04T02:50:06.924Z,8.38
2018-12-04T02:52:35.823Z,8.40
2018-12-04T02:55:04.825Z,8.44
2018-12-04T02:57:40.087Z,8.52
2018-12-04T03:00:11.008Z,8.68
2018-12-04T03:02:40.033Z,8.60
2018-12-04T03:05:08.907Z,8.65
2018-12-04T03:07:37.811Z,8.63
2018-12-04T03:10:07.259Z,8.64
2018-12-04T03:12:36.152Z,8.60
2018-12-04T03:15:05.216Z,8.67
2018-12-04T03:17:34.061Z,8.66
2018-12-04T03:20:04.778Z,8.64
2018-12-04T03:22:33.684Z,8.76
2018-12-04T03:25:02.621Z,8.77
2018-12-04T03:27:31.553Z,8.82
2018-12-04T03:30:00.452Z,8.85
2018-12-04T03:32:29.330Z,8.88
2018-12-04T03:34:58.252Z,8.81
2018-12-04T03:37:27.058Z,8.73
2018-12-04T03:39:55.944Z,8.76
2018-12-04T03:42:24.915Z,8.72
2018-12-04T03:44:53.863Z,8.71
2018-12-04T03:47:22.743Z,8.56
2018-12-04T03:49:51.596Z,8.53
2018-12-04T03:52:20.659Z,8.49
2018-12-04T03:54:49.529Z,8.46
2018-12-04T03:57:18.399Z,8.45
2018-12-04T03:59:47.267Z,8.56
2018-12-04T04:02:16.163Z,8.52
2018-12-04T04:04:45.072Z,8.52
2018-12-04T04:07:13.893Z,8.57
2018-12-04T04:09:42.861Z,8.68
2018-12-04T04:12:12.046Z,8.70
2018-12-04T04:14:41.067Z,8.78
2018-12-04T04:17:09.890Z,8.92
2018-12-04T04:19:38.858Z,8.88
2018-12-04T04:22:07.706Z,8.83
2018-12-04T04:24:36.628Z,8.87
2018-12-04T04:27:05.546Z,8.78
2018-12-04T04:29:34.388Z,8.63
2018-12-04T04:32:03.243Z,8.62
2018-12-04T04:34:32.208Z,8.55
2018-12-04T04:37:01.093Z,8.56
2018-12-04T04:39:29.995Z,8.57
2018-12-04T04:41:58.846Z,8.70
2018-12-04T04:44:27.699Z,8.78
2018-12-04T04:46:56.565Z,8.86
2018-12-04T04:49:25.438Z,8.92
2018-12-04T04:51:54.333Z,8.92
2018-12-04T04:54:25.173Z,8.87
2018-12-04T04:56:54.363Z,8.98
2018-12-04T04:59:23.304Z,8.97
2018-12-04T05:01:52.799Z,8.94
2018-12-04T05:04:21.632Z,8.91
2018-12-04T05:06:50.536Z,8.94
2018-12-04T05:09:19.484Z,8.91
2018-12-04T05:11:48.423Z,8.95
2018-12-04T05:14:17.267Z,8.93
2018-12-04T05:16:46.128Z,8.93
2018-12-04T05:19:14.992Z,9.00
2018-12-04T05:21:43.823Z,8.98
2018-12-04T05:24:12.678Z,8.92
2018-12-04T05:26:41.700Z,8.92
2018-12-04T05:29:10.659Z,8.90
2018-12-04T05:31:39.507Z,8.81
2018-12-04T05:34:08.324Z,8.82
2018-12-04T05:36:37.166Z,8.83
2018-12-04T05:39:07.451Z,8.98
2018-12-04T05:41:36.433Z,8.91
2018-12-04T05:44:05.314Z,8.97
2018-12-04T05:46:34.232Z,8.86
2018-12-04T05:49:03.106Z,8.89
2018-12-04T05:51:31.988Z,8.97
2018-12-04T05:54:00.915Z,8.90
2018-12-04T05:56:29.742Z,8.83
2018-12-04T05:58:58.568Z,8.84
2018-12-04T06:01:27.424Z,8.86
2018-12-04T06:03:56.343Z,8.85
2018-12-04T06:06:25.248Z,8.80
2018-12-04T06:08:54.123Z,8.78
2018-12-04T06:11:23.023Z,8.80
2018-12-04T06:13:51.835Z,8.84
2018-12-04T06:16:20.703Z,8.77
2018-12-04T06:18:49.578Z,8.84
2018-12-04T06:21:18.436Z,8.87
2018-12-04T06:23:47.285Z,8.82
2018-12-04T06:26:16.116Z,8.76
2018-12-04T06:28:44.934Z,8.82
2018-12-04T06:31:13.830Z,8.84
2018-12-04T06:33:42.661Z,8.82
2018-12-04T06:36:11.619Z,8.78
2018-12-04T06:38:40.450Z,8.85
2018-12-04T06:41:09.288Z,8.84
2018-12-04T06:43:38.119Z,8.85
2018-12-04T06:46:06.972Z,8.81
2018-12-04T06:48:35.858Z,8.88
2018-12-04T06:51:05.057Z,8.92
2018-12-04T06:53:33.955Z,8.90
2018-12-04T06:56:02.850Z,8.92
2018-12-04T06:58:31.803Z,8.86
2018-12-04T07:01:00.743Z,8.88
2018-12-04T07:03:29.662Z,8.83
2018-12-04T07:05:58.579Z,8.80
2018-12-04T07:08:27.663Z,8.83
2018-12-04T07:10:56.443Z,8.86
2018-12-04T07:13:25.275Z,8.89
2018-12-04T07:15:54.135Z,8.89
2018-12-04T07:18:22.955Z,8.91
2018-12-04T07:20:51.849Z,8.89
2018-12-04T07:23:20.839Z,8.83
2018-12-04T07:25:49.690Z,8.78
2018-12-04T07:28:18.529Z,8.83
2018-12-04T07:30:47.375Z,8.88
2018-12-04T07:33:16.294Z,8.87
2018-12-04T07:35:45.183Z,8.88
2018-12-04T07:38:14.086Z,8.88
2018-12-04T07:40:43.509Z,8.93
2018-12-04T07:43:12.482Z,9.02
2018-12-04T07:45:42.450Z,9.16
2018-12-04T07:48:12.313Z,9.09
2018-12-04T07:50:41.406Z,8.99
2018-12-04T07:53:10.270Z,8.88
2018-12-04T07:55:39.126Z,8.81
2018-12-04T07:58:07.964Z,8.79
2018-12-04T08:00:36.940Z,8.79
2018-12-04T08:03:05.953Z,8.68
2018-12-04T08:05:34.800Z,8.72
2018-12-04T08:08:03.643Z,8.63
2018-12-04T08:10:32.543Z,8.54
2018-12-04T08:13:01.363Z,8.52
2018-12-04T08:15:30.211Z,8.38
2018-12-04T08:17:59.023Z,8.38
2018-12-04T08:20:27.867Z,8.34
2018-12-04T08:22:56.703Z,8.38
2018-12-04T08:25:25.639Z,8.35
2018-12-04T08:27:54.532Z,8.37
2018-12-04T08:30:23.397Z,8.36
2018-12-04T08:32:52.232Z,8.34
2018-12-04T08:35:21.060Z,8.37
2018-12-04T08:37:49.958Z,8.41
2018-12-04T08:40:18.794Z,8.51
2018-12-04T08:42:47.683Z,8.55
2018-12-04T08:45:16.596Z,8.56
2018-12-04T08:47:45.488Z,8.60
2018-12-04T08:50:14.440Z,8.58
2018-12-04T08:52:43.367Z,8.57
2018-12-04T08:55:12.219Z,8.57
2018-12-04T08:57:41.107Z,8.54
2018-12-04T09:00:10.301Z,8.64
2018-12-04T09:02:39.252Z,8.64
2018-12-04T09:05:08.662Z,8.59
2018-12-04T09:07:37.625Z,8.65
2018-12-04T09:10:07.036Z,8.67
2018-12-04T09:12:35.861Z,8.78
2018-12-04T09:15:05.311Z,8.82
2018-12-04T09:17:34.211Z,8.92
2018-12-04T09:20:03.164Z,9.06
2018-12-04T09:22:32.157Z,9.25
2018-12-04T09:25:01.206Z,9.37
2018-12-04T09:27:30.301Z,9.16
2018-12-04T09:29:59.359Z,9.08
2018-12-04T09:32:28.262Z,9.08
2018-12-04T09:34:57.156Z,9.11
2018-12-04T09:37:29.021Z,9.25
2018-12-04T09:39:58.820Z,9.30
2018-12-04T09:42:27.654Z,9.36
2018-12-04T09:44:56.718Z,9.35
2018-12-04T09:47:25.580Z,9.53
2018-12-04T09:49:54.527Z,9.76
2018-12-04T09:52:23.386Z,9.82
2018-12-04T09:54:52.300Z,9.98
2018-12-04T09:57:21.143Z,9.98
2018-12-04T09:59:50.083Z,9.73
2018-12-04T10:02:18.863Z,9.82
2018-12-04T10:04:47.724Z,9.73
2018-12-04T10:07:16.571Z,9.69
2018-12-04T10:09:45.475Z,9.76
2018-12-04T10:12:14.366Z,9.92
2018-12-04T10:14:43.269Z,9.79
2018-12-04T10:17:12.121Z,9.87
2018-12-04T10:19:41.599Z,9.77
2018-12-04T10:22:10.428Z,9.73
2018-12-04T10:24:39.258Z,9.57
2018-12-04T10:27:08.165Z,9.47
2018-12-04T10:29:37.116Z,9.53
2018-12-04T10:32:05.951Z,9.58
2018-12-04T10:34:34.824Z,9.48
2018-12-04T10:37:03.854Z,9.40
2018-12-04T10:39:32.728Z,9.30
2018-12-04T10:42:02.448Z,9.45
2018-12-04T10:44:31.384Z,9.59
2018-12-04T10:47:00.312Z,9.74
2018-12-04T10:49:30.527Z,9.66
2018-12-04T10:51:59.434Z,9.57
2018-12-04T10:54:28.291Z,9.42
2018-12-04T10:56:57.185Z,9.51
2018-12-04T10:59:26.004Z,9.98
2018-12-04T11:02:00.286Z,10.22
2018-12-04T11:04:29.146Z,10.76
2018-12-04T11:06:57.990Z,10.79
2018-12-04T11:09:26.891Z,10.41
2018-12-04T11:11:55.802Z,10.12
2018-12-04T11:14:24.760Z,9.71
2018-12-04T11:16:53.696Z,9.41
2018-12-04T11:19:22.584Z,9.35
2018-12-04T11:21:51.502Z,9.20
2018-12-04T11:24:20.681Z,9.25
2018-12-04T11:26:49.536Z,9.16
2018-12-04T11:29:18.893Z,9.02
2018-12-04T11:31:47.826Z,9.00
2018-12-04T11:34:16.708Z,8.88
2018-12-04T11:36:45.559Z,8.99
2018-12-04T11:39:14.432Z,8.77
2018-12-04T11:41:43.263Z,8.80
2018-12-04T11:44:12.248Z,8.94
2018-12-04T11:46:41.150Z,9.38
2018-12-04T11:49:10.048Z,9.33
2018-12-04T11:51:38.896Z,9.27
2018-12-04T11:54:07.742Z,8.94
2018-12-04T11:56:36.713Z,8.80
2018-12-04T11:59:05.645Z,8.37
2018-12-04T12:01:34.612Z,8.41
2018-12-04T12:04:04.581Z,8.32
2018-12-04T12:06:33.676Z,8.34
2018-12-04T12:09:02.515Z,8.25
2018-12-04T12:11:33.343Z,8.16
2018-12-04T12:14:02.223Z,8.18
2018-12-04T12:16:31.103Z,8.26
2018-12-04T12:19:06.393Z,8.15
2018-12-04T12:21:35.379Z,8.37
2018-12-04T12:24:04.216Z,8.26
2018-12-04T12:26:33.119Z,8.18
2018-12-04T12:29:02.112Z,7.99
2018-12-04T12:31:31.105Z,7.75
2018-12-04T12:34:00.006Z,7.75
2018-12-04T12:36:28.839Z,7.75
2018-12-04T12:38:57.759Z,7.72
2018-12-04T12:41:26.827Z,7.76
2018-12-04T12:46:25.655Z,8.06
2018-12-04T12:48:54.555Z,8.11
2018-12-04T12:51:23.387Z,8.17
2018-12-04T12:53:52.448Z,8.28
2018-12-04T12:56:21.343Z,8.57
2018-12-04T12:58:50.191Z,9.21
2018-12-04T13:01:19.199Z,9.98
2018-12-04T13:03:48.172Z,10.05
2018-12-04T13:06:17.081Z,10.22
2018-12-04T13:08:46.040Z,9.75
2018-12-04T13:11:14.934Z,9.68
2018-12-04T13:13:43.779Z,11.10
2018-12-04T13:16:12.618Z,14.55
2018-12-04T13:18:41.520Z,16.76
2018-12-04T13:21:10.420Z,17.53
2018-12-04T13:23:39.427Z,16.36
2018-12-04T13:26:08.339Z,14.81
2018-12-04T13:28:37.175Z,12.98
2018-12-04T13:31:06.023Z,13.55
2018-12-04T13:33:34.939Z,13.43
2018-12-04T13:36:03.810Z,12.35
2018-12-04T13:38:32.736Z,11.26
2018-12-04T13:41:01.648Z,10.56
2018-12-04T13:43:30.671Z,10.21
2018-12-04T13:45:59.635Z,9.86
2018-12-04T13:48:28.554Z,9.63
2018-12-04T13:50:57.508Z,9.49
2018-12-04T13:53:26.469Z,9.40
2018-12-04T13:55:55.709Z,9.28
2018-12-04T13:58:24.628Z,9.21
2018-12-04T14:00:53.519Z,9.03
2018-12-04T14:03:22.435Z,8.89
2018-12-04T14:05:52.592Z,8.75
2018-12-04T14:08:21.612Z,8.53
2018-12-04T14:10:50.631Z,8.46
2018-12-04T14:13:19.602Z,8.34
2018-12-04T14:15:48.540Z,8.22
2018-12-04T14:18:17.488Z,8.10
2018-12-04T14:20:46.497Z,8.00
2018-12-04T14:23:15.482Z,7.94
2018-12-04T14:25:44.404Z,7.85
2018-12-04T14:28:13.235Z,7.82
2018-12-04T14:30:42.263Z,7.72
2018-12-04T14:33:11.187Z,7.73
2018-12-04T14:35:40.040Z,7.68
2018-12-04T14:38:09.007Z,7.61
2018-12-04T14:40:37.910Z,7.55
2018-12-04T14:43:06.889Z,7.53
2018-12-04T14:45:35.827Z,7.51
2018-12-04T14:48:04.786Z,7.51
2018-12-04T14:50:33.664Z,7.53
2018-12-04T14:53:02.574Z,7.43
2018-12-04T14:55:31.539Z,7.40
2018-12-04T14:58:00.479Z,7.35
2018-12-04T15:00:30.124Z,7.29
2018-12-04T15:02:59.013Z,7.30
2018-12-04T15:05:28.118Z,7.29
2018-12-04T15:07:57.115Z,7.28
2018-12-04T15:10:26.063Z,7.28
2018-12-04T15:12:55.228Z,7.26
2018-12-04T15:15:24.888Z,7.25
2018-12-04T15:17:53.783Z,7.30
2018-12-04T15:20:22.683Z,7.18
2018-12-04T15:22:51.581Z,7.11
2018-12-04T15:25:20.471Z,7.15
2018-12-04T15:27:49.382Z,7.21
2018-12-04T15:30:18.320Z,7.27
2018-12-04T15:32:47.274Z,7.23
2018-12-04T15:35:16.154Z,7.28
2018-12-04T15:37:45.083Z,7.22
2018-12-04T15:40:14.004Z,7.20
2018-12-04T15:42:42.904Z,7.20
2018-12-04T15:45:11.916Z,7.18
2018-12-04T15:47:40.812Z,7.20
2018-12-04T15:50:09.847Z,7.18
2018-12-04T15:52:38.836Z,7.15
2018-12-04T15:55:07.874Z,7.20
2018-12-04T15:57:36.763Z,7.16
2018-12-04T16:00:07.407Z,7.14
2018-12-04T16:02:36.516Z,7.11
2018-12-04T16:05:07.123Z,7.04
2018-12-04T16:07:36.011Z,6.97
2018-12-04T16:10:07.826Z,6.93
2018-12-04T16:12:37.060Z,6.95
2018-12-04T16:15:06.079Z,6.98
2018-12-04T16:17:34.993Z,6.90
2018-12-04T16:20:04.672Z,6.90
2018-12-04T16:22:33.654Z,6.96
2018-12-04T16:25:02.735Z,6.88
2018-12-04T16:27:31.757Z,6.83
2018-12-04T16:30:00.686Z,6.78
2018-12-04T16:32:29.582Z,6.79
2018-12-04T16:34:58.421Z,6.71
2018-12-04T16:37:27.406Z,6.66
2018-12-04T16:39:56.348Z,6.60
2018-12-04T16:42:25.272Z,6.57
2018-12-04T16:44:54.132Z,6.53
2018-12-04T16:47:23.072Z,6.51
2018-12-04T16:49:52.026Z,6.46
2018-12-04T16:52:20.890Z,6.43
2018-12-04T16:54:49.931Z,6.39
2018-12-04T16:57:18.774Z,6.36
2018-12-04T16:59:47.629Z,6.35
2018-12-04T17:02:16.473Z,6.29
2018-12-04T17:04:45.329Z,6.24
2018-12-04T17:07:14.214Z,6.21
2018-12-04T17:09:43.714Z,6.19
2018-12-04T17:12:12.592Z,6.16
2018-12-04T17:14:41.459Z,6.12
2018-12-04T17:17:10.367Z,6.12
2018-12-04T17:19:39.223Z,6.09
2018-12-04T17:22:08.815Z,6.11
2018-12-04T17:24:38.771Z,6.12
2018-12-04T17:27:07.687Z,6.08
2018-12-04T17:29:36.553Z,6.05
2018-12-04T17:32:05.435Z,6.00
2018-12-04T17:34:34.321Z,5.95
2018-12-04T17:37:03.337Z,5.89
2018-12-04T17:39:32.195Z,5.88
2018-12-04T17:42:01.031Z,5.79
2018-12-04T17:44:29.987Z,5.80
2018-12-04T17:46:58.871Z,5.67
2018-12-04T17:49:27.818Z,5.55
2018-12-04T17:51:56.721Z,5.51
2018-12-04T17:54:25.727Z,5.34
2018-12-04T17:56:54.707Z,5.23
2018-12-04T17:59:25.610Z,5.12
2018-12-04T18:01:54.598Z,5.11
2018-12-04T18:04:23.446Z,5.00
2018-12-04T18:06:54.303Z,4.86
2018-12-04T18:09:23.240Z,4.72
2018-12-04T18:11:54.100Z,4.68
2018-12-04T18:14:25.092Z,4.59
2018-12-04T18:16:54.014Z,4.56
2018-12-04T18:19:22.884Z,4.47
2018-12-04T18:21:51.738Z,4.29
2018-12-04T18:24:20.640Z,4.15
2018-12-04T18:26:49.581Z,4.14
2018-12-04T18:29:18.484Z,3.97
2018-12-04T18:31:47.464Z,3.97
2018-12-04T18:34:16.315Z,4.00
2018-12-04T18:36:45.165Z,3.88
2018-12-04T18:39:13.999Z,3.91
2018-12-04T18:41:43.039Z,3.93
2018-12-04T18:44:13.907Z,3.99
2018-12-04T18:46:42.863Z,3.84
2018-12-04T18:49:11.713Z,3.68
2018-12-04T18:51:40.662Z,3.67
2018-12-04T18:54:09.687Z,3.69
2018-12-04T18:56:38.679Z,3.71
2018-12-04T18:59:07.567Z,3.71
2018-12-04T19:01:36.502Z,3.67
2018-12-04T19:04:05.416Z,3.56
2018-12-04T19:06:34.363Z,3.45
2018-12-04T19:09:05.074Z,3.29
2018-12-04T19:11:36.062Z,3.18
2018-12-04T19:14:05.216Z,2.99
2018-12-04T19:16:34.107Z,2.86
2018-12-04T19:19:03.003Z,2.82
2018-12-04T19:21:32.030Z,2.63
2018-12-04T19:24:00.932Z,2.51
2018-12-04T19:26:29.854Z,2.58
2018-12-04T19:28:58.714Z,2.41
2018-12-04T19:31:27.556Z,2.36
2018-12-04T19:33:56.505Z,2.31
2018-12-04T19:36:25.337Z,2.17
2018-12-04T19:38:54.174Z,2.11
2018-12-04T19:41:23.058Z,2.09
2018-12-04T19:43:56.444Z,2.07
2018-12-04T19:46:22.881Z,1.97
2018-12-04T19:48:51.739Z,2.08
2018-12-04T19:51:20.659Z,1.93
2018-12-04T19:53:49.511Z,1.85
2018-12-04T19:56:18.511Z,1.75
2018-12-04T19:58:47.382Z,1.74
2018-12-04T20:01:16.296Z,1.66
2018-12-04T20:03:45.240Z,1.60
2018-12-04T20:06:14.186Z,1.46
2018-12-04T20:08:48.392Z,1.53
2018-12-04T20:11:17.267Z,1.43
2018-12-04T20:13:46.184Z,1.30
2018-12-04T20:16:15.071Z,1.38
2018-12-04T20:18:44.145Z,1.24
2018-12-04T20:21:12.994Z,1.35
2018-12-04T20:23:42.109Z,1.38
2018-12-04T20:26:11.116Z,1.48
2018-12-04T20:28:39.980Z,1.43
2018-12-04T20:31:08.928Z,1.49
2018-12-04T20:33:37.899Z,1.43
2018-12-04T20:36:06.757Z,1.63
2018-12-04T20:38:35.789Z,1.55
2018-12-04T20:41:04.892Z,1.45
2018-12-04T20:43:33.859Z,1.58
2018-12-04T20:46:05.953Z,1.38
2018-12-04T20:48:33.809Z,1.30
2018-12-04T20:51:02.723Z,1.13
2018-12-04T20:53:31.883Z,1.16
2018-12-04T20:56:00.991Z,1.09
2018-12-04T20:58:29.983Z,1.13
2018-12-04T21:00:59.159Z,1.02
2018-12-04T21:03:28.122Z,0.93
2018-12-04T21:05:57.169Z,0.88
2018-12-04T21:08:26.247Z,0.83
2018-12-04T21:10:55.144Z,0.77
2018-12-04T21:13:24.130Z,0.73
2018-12-04T21:15:53.007Z,0.80
2018-12-04T21:18:21.922Z,0.80
2018-12-04T21:20:51.064Z,0.76
2018-12-04T21:23:20.042Z,0.69
2018-12-04T21:25:49.009Z,0.63
2018-12-04T21:28:23.392Z,0.68
2018-12-04T21:30:57.764Z,0.77
2018-12-04T21:33:32.057Z,0.83
2018-12-04T21:36:06.189Z,0.72
2018-12-04T21:38:40.216Z,0.60
2018-12-04T21:41:15.200Z,0.59
2018-12-04T21:43:49.460Z,0.63
2018-12-04T21:46:23.642Z,0.74
2018-12-04T21:48:52.946Z,0.64
2018-12-04T21:51:21.833Z,0.52
2018-12-04T21:53:50.934Z,0.46
2018-12-04T21:56:20.153Z,0.43
2018-12-04T21:58:49.007Z,0.40
2018-12-04T22:01:17.925Z,0.34
2018-12-04T22:03:46.910Z,0.41
2018-12-04T22:06:15.807Z,0.37
2018-12-04T22:08:44.661Z,0.37
2018-12-04T22:11:13.667Z,0.27
2018-12-04T22:13:42.504Z,0.23
2018-12-04T22:16:11.657Z,0.33
2018-12-04T22:18:40.507Z,0.26
2018-12-04T22:21:09.451Z,0.30
2018-12-04T22:23:38.432Z,0.19
2018-12-04T22:26:07.300Z,0.16
2018-12-04T22:28:36.131Z,0.16
2018-12-04T22:31:05.102Z,0.14
2018-12-04T22:33:33.966Z,0.07
2018-12-04T22:36:02.922Z,0.14
2018-12-04T22:38:31.780Z,0.58
2018-12-04T22:41:00.702Z,0.48
2018-12-04T22:43:29.614Z,0.36
2018-12-04T22:45:58.465Z,0.37
2018-12-04T22:48:27.348Z,0.13
2018-12-04T22:50:56.196Z,0.05
2018-12-04T22:53:25.105Z,-0.15
2018-12-04T22:55:54.126Z,-0.10
2018-12-04T22:58:22.986Z,-0.18
2018-12-04T23:00:52.212Z,-0.35
2018-12-04T23:03:21.401Z,-0.39
2018-12-04T23:05:50.283Z,-0.34
2018-12-04T23:08:19.176Z,-0.24
2018-12-04T23:10:48.084Z,-0.20
2018-12-04T23:13:16.939Z,-0.02
2018-12-04T23:15:45.790Z,-0.11
2018-12-04T23:18:14.735Z,-0.20
2018-12-04T23:20:43.611Z,-0.39
2018-12-04T23:23:12.613Z,-0.51
2018-12-04T23:25:41.559Z,-0.64
2018-12-04T23:28:10.423Z,-0.69
2018-12-04T23:30:39.278Z,-0.69
2018-12-04T23:33:08.139Z,-0.65
2018-12-04T23:35:37.803Z,-0.70
2018-12-04T23:38:06.685Z,-0.67
2018-12-04T23:40:35.605Z,-0.72
2018-12-04T23:43:04.694Z,-0.70
2018-12-04T23:45:33.646Z,-0.70
2018-12-04T23:48:02.526Z,-0.70
2018-12-04T23:50:31.386Z,-0.77
2018-12-04T23:53:00.225Z,-0.77
2018-12-04T23:55:29.110Z,-0.72
2018-12-04T23:57:57.954Z,-0.64
